Time;durP1;ratioP1;P1;durP2;ratioP2;P2;SDS_P1;SDS_P2;PMS_P1;PMS_P2;Temp;Humidity;BMP_temperature;BMP_pressure;BME280_temperature;BME280_humidity;BME280_pressure;Samples;Min_cycle;Max_cycle;Signal;HPM_P1;HPM_P2
2021/05/12 00:15:01;;;;;;;3.97;2.40;;;;;;;22.55;48.19;99940.41;31326026;28;20804;-60
2021/05/12 00:30:07;;;;;;;4.10;2.30;;;;;;;22.51;48.25;99925.03;31393363;28;20063;-61
2021/05/12 00:45:13;;;;;;;3.30;2.10;;;;;;;22.48;48.10;99967.75;31302632;28;20114;-61
2021/05/12 01:00:15;;;;;;;2.85;1.70;;;;;;;22.46;47.92;99977.69;31319151;28;20046;-60
2021/05/12 01:15:16;;;;;;;2.97;1.75;;;;;;;22.42;47.86;100016.91;31326776;28;20045;-60
2021/05/12 01:30:18;;;;;;;3.40;2.20;;;;;;;22.41;48.00;100017.09;31378558;28;20041;-60
2021/05/12 01:45:18;;;;;;;3.63;2.00;;;;;;;22.37;47.59;100033.31;31317176;28;20368;-61
2021/05/12 02:00:22;;;;;;;2.87;1.90;;;;;;;22.34;47.51;100015.13;31340475;28;20471;-60
2021/05/12 02:15:23;;;;;;;2.92;1.88;;;;;;;22.33;47.41;100018.78;31284018;28;20311;-60
2021/05/12 02:30:25;;;;;;;3.00;1.80;;;;;;;22.31;47.49;100019.94;31355885;28;20071;-60
2021/05/12 02:45:26;;;;;;;2.80;1.75;;;;;;;22.28;47.25;100034.34;31292045;28;20044;-61
2021/05/12 03:00:28;;;;;;;2.35;1.52;;;;;;;22.26;47.41;100044.25;31308425;28;20444;-60
2021/05/12 03:15:30;;;;;;;2.92;1.80;;;;;;;22.25;47.14;100028.56;31299462;28;20050;-61
2021/05/12 03:30:33;;;;;;;2.95;1.70;;;;;;;22.23;47.13;100034.03;31394526;28;20044;-59
2021/05/12 03:45:34;;;;;;;2.95;1.45;;;;;;;22.23;47.03;100057.03;31296159;28;20094;-60
2021/05/12 04:00:35;;;;;;;3.00;1.80;;;;;;;22.22;47.24;100076.53;31302589;28;20037;-59
2021/05/12 04:15:36;;;;;;;2.27;1.40;;;;;;;22.22;46.87;100066.78;31296320;28;20287;-60
2021/05/12 04:30:37;;;;;;;2.87;1.30;;;;;;;22.23;46.68;100071.09;31341699;28;20418;-60
2021/05/12 04:45:38;;;;;;;2.90;1.70;;;;;;;22.24;46.62;100117.75;31275055;28;20287;-60
2021/05/12 05:00:39;;;;;;;3.00;1.37;;;;;;;22.30;46.41;100135.59;31293331;28;20302;-58
2021/05/12 05:15:40;;;;;;;2.77;1.20;;;;;;;22.31;46.20;100139.06;31293343;28;20321;-60
2021/05/12 05:30:41;;;;;;;2.10;1.30;;;;;;;22.32;46.19;100146.84;31383066;28;20303;-62
2021/05/12 05:45:42;;;;;;;2.97;1.38;;;;;;;22.45;45.59;100153.44;31316783;28;20327;-61
2021/05/12 06:00:45;;;;;;;3.00;1.30;;;;;;;22.42;45.52;100159.91;31280251;28;20044;-61
2021/05/12 06:15:46;;;;;;;3.30;1.35;;;;;;;22.40;45.67;100155.78;31334050;28;20090;-60
2021/05/12 06:30:50;;;;;;;6.20;1.57;;;;;;;22.33;45.95;100166.19;31356757;28;20048;-60
2021/05/12 06:45:51;;;;;;;8.63;5.30;;;;;;;19.11;51.81;100183.78;31325274;28;20365;-55
2021/05/12 07:00:52;;;;;;;8.93;5.53;;;;;;;19.17;50.64;100178.75;31338675;28;20033;-59
2021/05/12 07:15:53;;;;;;;9.20;5.45;;;;;;;19.97;48.54;100175.50;31360319;28;20094;-58
2021/05/12 07:30:54;;;;;;;9.77;5.97;;;;;;;18.89;51.76;100214.75;31351970;28;20059;-62
2021/05/12 07:45:57;;;;;;;5.57;4.00;;;;;;;19.83;50.06;100200.59;31302607;28;20299;-62
2021/05/12 08:01:04;;;;;;;6.75;4.05;;;;;;;20.68;48.00;100208.94;31341647;28;20657;-57
2021/05/12 08:16:05;;;;;;;6.32;4.35;;;;;;;21.16;46.73;100202.28;31323746;28;20029;-61
2021/05/12 08:31:06;;;;;;;8.53;5.03;;;;;;;21.45;46.12;100225.72;31333838;28;20055;-61
2021/05/12 08:46:11;;;;;;;6.60;5.23;;;;;;;21.64;45.22;100210.59;31326087;28;20287;-63
2021/05/12 09:01:12;;;;;;;9.57;5.40;;;;;;;21.77;45.61;100218.91;31343520;28;20345;-63
2021/05/12 09:16:15;;;;;;;6.37;5.50;;;;;;;21.90;45.28;100226.38;31315139;28;20399;-63
2021/05/12 09:31:17;;;;;;;7.32;5.65;;;;;;;21.96;45.07;100229.16;31308074;28;20310;-62
2021/05/12 09:46:24;;;;;;;7.57;5.35;;;;;;;22.16;45.00;100197.13;31303888;28;20033;-63
2021/05/12 10:01:42;;;;;;;7.45;5.28;;;;;;;22.29;44.26;100186.91;31327743;28;20033;-61
2021/05/12 10:16:49;;;;;;;7.13;5.30;;;;;;;22.36;44.84;100187.06;31350371;28;20024;-64
2021/05/12 10:31:50;;;;;;;7.85;5.78;;;;;;;22.62;44.46;100194.00;31349658;28;20045;-63
2021/05/12 10:47:07;;;;;;;7.43;5.37;;;;;;;22.61;44.59;100213.50;31305618;28;20032;-59
2021/05/12 11:02:08;;;;;;;9.32;6.45;;;;;;;22.42;44.48;100209.41;31349751;28;20287;-57
2021/05/12 11:17:13;;;;;;;6.80;5.70;;;;;;;22.33;44.78;100224.44;31348490;28;20047;-58
2021/05/12 11:32:14;;;;;;;7.20;5.60;;;;;;;22.32;45.17;100217.50;31328831;28;20349;-58
2021/05/12 11:47:28;;;;;;;6.70;5.50;;;;;;;22.28;44.94;100219.66;31349901;28;20028;-62
2021/05/12 12:02:29;;;;;;;8.18;5.28;;;;;;;22.34;45.59;100226.94;31264289;28;20421;-63
2021/05/12 12:17:30;;;;;;;6.78;5.00;;;;;;;22.37;45.89;100228.44;31256377;28;20111;-62
2021/05/12 12:32:31;;;;;;;7.70;5.10;;;;;;;22.36;46.23;100232.06;31241308;28;20379;-63
2021/05/12 12:47:32;;;;;;;5.43;4.73;;;;;;;22.40;45.85;100227.25;31208047;28;20323;-63
2021/05/12 13:02:33;;;;;;;7.97;4.90;;;;;;;22.40;46.24;100243.16;31255162;28;20291;-66
2021/05/12 13:17:35;;;;;;;8.10;4.83;;;;;;;22.34;46.33;100232.22;31242814;28;20290;-64
2021/05/12 13:32:36;;;;;;;5.18;4.45;;;;;;;22.30;46.23;100241.50;31261816;28;20434;-61
2021/05/12 13:47:37;;;;;;;7.22;5.07;;;;;;;22.27;46.52;100255.06;31270461;28;20069;-66
2021/05/12 14:02:50;;;;;;;7.13;5.75;;;;;;;22.28;46.52;100242.66;31278134;28;21045;-65
2021/05/12 14:17:51;;;;;;;7.85;5.97;;;;;;;22.26;46.53;100252.56;31302180;28;20041;-63
2021/05/12 14:32:52;;;;;;;7.93;5.90;;;;;;;22.25;46.60;100257.03;31318418;28;20033;-62
2021/05/12 14:48:04;;;;;;;6.30;5.07;;;;;;;22.26;46.47;100252.56;31332001;28;20295;-63
2021/05/12 15:03:13;;;;;;;7.10;5.20;;;;;;;22.21;46.43;100242.47;31328784;28;20303;-60
2021/05/12 15:18:14;;;;;;;6.95;5.18;;;;;;;22.20;46.26;100235.50;31346639;28;20045;-58
2021/05/12 15:33:15;;;;;;;5.37;4.73;;;;;;;22.15;46.40;100248.38;31359970;28;20033;-60
2021/05/12 15:48:16;;;;;;;5.93;4.63;;;;;;;22.13;46.07;100253.03;31339408;28;20801;-60
2021/05/12 16:03:17;;;;;;;5.38;4.55;;;;;;;22.10;46.97;100251.53;31313343;28;20291;-58
2021/05/12 16:18:18;;;;;;;12.13;9.67;;;;;;;21.39;48.34;100244.84;31348320;28;20036;-61
2021/05/12 16:33:19;;;;;;;17.00;12.27;;;;;;;20.84;50.66;100232.81;31336763;28;20296;-61
2021/05/12 16:48:21;;;;;;;16.97;13.23;;;;;;;20.49;50.17;100245.06;31344146;28;20291;-60
2021/05/12 17:03:22;;;;;;;8.82;7.88;;;;;;;20.59;50.35;100266.16;31333771;28;20324;-60
2021/05/12 17:18:23;;;;;;;7.30;6.25;;;;;;;21.12;48.77;100304.84;31337313;28;20045;-61
2021/05/12 17:33:24;;;;;;;7.85;5.43;;;;;;;21.36;48.15;100192.28;31368875;28;20040;-61
2021/05/12 17:48:25;;;;;;;8.83;5.57;;;;;;;21.44;47.69;100187.06;31320574;28;20034;-62
2021/05/12 18:03:29;;;;;;;8.43;5.50;;;;;;;21.50;47.73;100175.00;31342823;28;20627;-62
2021/05/12 18:18:30;;;;;;;8.20;5.70;;;;;;;21.59;48.29;100200.50;31350759;28;20635;-62
2021/05/12 18:33:34;;;;;;;22.13;12.40;;;;;;;21.63;48.45;100230.94;31349903;28;20051;-62
2021/05/12 18:48:35;;;;;;;22.42;11.82;;;;;;;21.69;48.00;100224.16;31330736;28;20279;-61
2021/05/12 19:03:36;;;;;;;36.70;24.83;;;;;;;21.71;48.57;100230.13;31334236;28;20029;-62
2021/05/12 19:18:49;;;;;;;33.42;20.55;;;;;;;21.76;48.55;100246.31;31341323;28;20458;-63
2021/05/12 19:34:13;;;;;;;27.70;17.95;;;;;;;21.79;48.55;100266.34;31322512;28;20029;-62
2021/05/12 19:49:14;;;;;;;28.38;17.65;;;;;;;21.82;48.68;100261.56;31334335;28;20063;-64
2021/05/12 20:04:18;;;;;;;22.80;15.63;;;;;;;21.86;48.46;100264.72;31323574;28;20091;-64
2021/05/12 20:19:19;;;;;;;22.75;16.08;;;;;;;21.89;48.36;100274.97;31346390;28;20650;-65
2021/05/12 20:49:40;;;;;;;22.42;16.08;;;;;;;21.90;48.80;100221.09;31316497;28;20808;-63
2021/05/12 21:04:41;;;;;;;20.67;14.13;;;;;;;21.92;48.91;100205.84;31331547;28;20037;-61
2021/05/12 21:19:42;;;;;;;21.83;14.35;;;;;;;21.92;48.64;100206.69;31345055;28;20349;-62
2021/05/12 21:34:43;;;;;;;17.30;12.70;;;;;;;21.93;48.63;100210.16;31330186;28;20078;-62
2021/05/12 21:49:44;;;;;;;16.03;12.67;;;;;;;21.93;48.66;100187.16;31323363;28;20352;-63
2021/05/12 22:04:55;;;;;;;16.97;11.83;;;;;;;21.94;48.66;100193.28;31309477;28;20365;-62
2021/05/12 22:35:19;;;;;;;13.50;9.52;;;;;;;21.91;48.07;100169.81;31296612;28;20119;-61
2021/05/12 22:50:24;;;;;;;11.10;7.23;;;;;;;20.83;48.53;100161.66;31320407;28;20053;-60
2021/05/12 23:05:24;;;;;;;13.35;6.72;;;;;;;20.17;49.73;100174.38;31334470;28;20537;-63
2021/05/12 23:20:27;;;;;;;7.07;4.47;;;;;;;20.47;49.59;100169.66;31361884;28;20037;-65
2021/05/12 23:35:33;;;;;;;6.05;3.72;;;;;;;20.99;48.27;100177.59;31312433;28;20283;-63
2021/05/12 23:50:34;;;;;;;5.05;3.85;;;;;;;21.23;47.83;100200.66;31358007;28;20025;-64
